Aviation Digital Data Service (ADDS)

Output produced by METARs form (0604 UTC 18 January 2018)
found at http://www.aviationweather.gov/adds/metars/
 
UTAA 180500Z 12003KT 5000 BR SCT100 BKN230 M01/M03 Q1017 R88/70D NOSIG
TAF UTAA 180430Z 1805/1906 12016KT 6000 SCT020 530009 
     TEMPO 1805/1807 VRB04KT 3000 BR 
     TEMPO 1807/1813 03014KT 
     BECMG 1818/1820 3000 BR 
     TEMPO 1900/1905 1000 BR BKN003
       
UTAK 180600Z 10008KT CAVOK 08/M02 Q1016 R16R/CLRD70 NOSIG
TAF UTAK 180430Z 1806/1906 15014KT 9999 SCT030 BKN100 530005 
     TEMPO 1806/1810 09016KT 
     BECMG 1814/1815 13018G28KT 
     TEMPO 1815/ 1822 5000 BKN020 BKN100
       
UTAM 180500Z 12006KT CAVOK 02/M04 Q1021 NOSIG
TAF UTAM 180430Z 1806/1906 11014KT 6000 BKN030 530007 
     TEMPO 1806/1815 13010G20KT 3000 DRDU SCT050CB 
     BECMG 1821/1824 17012KT 
     TEMPO 1821/1906 3000 HZ
       
UTAT 180500Z 11010KT CAVOK M03/M06 Q1022 R08/19//40 NOSIG
TAF UTAT 180447Z 1806/1906 11012KT 9999 OVC020 650200 530002 
     TEMPO 1812/1818 3000 BR OVC005 
     TEMPO 1822/1904 0900 FZFG VV003 
     BECMG 1904/1906 15012KT CAVOK
       
UTAV 180600Z 11006KT CAVOK 03/M06 Q1024 NOSIG
TAF UTAV 180430Z 1806/1906 12014KT CAVOK 530005 
     TEMPO 1806/1812 06012G22KT
       
UTDD 180530Z 00000MPS 0600 0500N R09/0900N FU NSC 01/M02 Q1023 R09/CLRD// TEMPO 0400 FU RMK QFE699/0931
TAF UTDD 180300Z 1804/1816 VRB02MPS 2100 BR SCT060 BKN100 
     TEMPO 1804/1806 1000 BR FU
       
UTDK 180530Z 00000MPS 8000 SCT007 00/M02 Q1024 R01/09//70 RMK QFE710/0947
TAF UTDK 180300Z 1804/1813 VRB02MPS 6000 SCT010 BKN060 
     TEMPO 1804/1813 3000 BR
       
UTDL 180530Z 08006MPS 2800 BR OVC009 01/M01 Q1025 R08/CLRD// NOSIG RMK QFE729/0973
TAF UTDL 180300Z 1804/1813 07010MPS 5000 BR SCT010 
     TEMPO 1804/1806 2300 BR BKN008 
     TEMPO 1806/1813 07009G14MPS
       
UTDT 180530Z VRB01MPS 2500 BR SCT004 OVC073 01/M00 Q1025 3519//60 RMK QBB120 QFE729/0972
TAF UTDT 180300Z 1804/1813 VRB02MPS 2500 BR SCT004 BKN060
       
UTFF 180530Z VRB02KT 2600 BR OVC007 M00/M03 Q1025 R18/CLRD70
TAF UTFF 180300Z 1804/1813 34010KT 1500 BR BKN011 
     TEMPO 1804/1807 VRB02KT 0700 FZFG OVC006
       
UTFN 180530Z 33004KT 4400 BR BKN019 M01/M04 Q1025 R28/CLRD70 NOSIG
TAF COR UTFN 180500Z 1806/1906 33010KT 3000 BR BKN020 
     TEMPO 1806/1812 15010KT 0700 FZFG SCT003 
     TEMPO 1812/1824 VRB02KT 0200 FZFG VV001
       
UTNN 180530Z 04006KT 9999 BKN044 M05/M07 Q1023 R33/450145 NOSIG
TAF UTNN 180500Z 1806/1906 04010G20KT 9999 BKN036 BKN100 
     TEMPO 1806/1812 5000 -SN BR OVC010 
     TEMPO 1818/1902 VRB04KT
       
UTNU 180530Z 08006KT 7000 NSC M01/M06 Q1023 R31/CLRD70 NOSIG
TAF UTNU 180501Z 1806/1906 07010G20KT 6000 BKN030 BKN100 
     TEMPO 1806/1812 VRB04KT 3000 -SN OVC010
       
UTSA 180530Z 08012KT 5000 FU NSC 03/M03 Q1023 R07/CLRD70 NOSIG
TAF UTSA 180501Z 1806/1906 VRB03KT 7000 NSC 
     TEMPO 1806/1814 09010KT 4500 BR FU SCT020
       
UTSB 180530Z 09006KT 6000 NSC 02/M03 Q1023 R01/CLRD70 NOSIG
TAF UTSB 180500Z 1806/1906 VRB03KT 7000 NSC 
     TEMPO 1806/1814 06010KT SCT025
       
UTSK 180530Z 07004KT 7000 NSC 00/M04 Q1022 R16/CLRD70
TAF UTSK 180252Z 1804/1813 07010KT 5000 BR SCT005 SCT030
       
UTSS 180530Z 11008KT 090V150 9999 NSC 03/M04 Q1022 R09/70D NOSIG
TAF UTSS 180500Z 1806/1906 07018G28KT 9999 SCT033 
     TEMPO 1806/1812 32010G20KT 5000 BR SCT008 
     TEMPO 1812/1821 12010G20KT 0500 FZFG VV002
       
UTST 180530Z VRB02KT CAVOK 02/M02 Q1024 R88/CLRD70 NOSIG
TAF UTST 180500Z 1806/1906 03006G16KT 6000 SCT030 BKN100 
     TEMPO 1806/1815 09008G18KT 
     TEMPO 1815/1821 2000 BR FU 
     TEMPO 1821/1905 0600 FZFG VV002
       
UTTT 180530Z 10004KT 3000 BR NSC 01/M02 Q1025 R26R/19//60 NOSIG
TAF UTTT 180500Z 1806/1906 VRB02KT 5000 BR FEW020 SCT100 
     TEMPO 1812/1815 35008KT 2000 BR 
     TEMPO 1815/1903 0500 FZFG VV002
       
UTSB 180530Z 09006KT 6000 NSC 02/M03 Q1023 R01/CLRD70 NOSIG
TAF UTSB 180500Z 1806/1906 VRB03KT 7000 NSC 
     TEMPO 1806/1814 06010KT SCT025
       
UTSK 180530Z 07004KT 7000 NSC 00/M04 Q1022 R16/CLRD70
TAF UTSK 180252Z 1804/1813 07010KT 5000 BR SCT005 SCT030
       
UTSS 180530Z 11008KT 090V150 9999 NSC 03/M04 Q1022 R09/70D NOSIG
TAF UTSS 180500Z 1806/1906 07018G28KT 9999 SCT033 
     TEMPO 1806/1812 32010G20KT 5000 BR SCT008 
     TEMPO 1812/1821 12010G20KT 0500 FZFG VV002
       
UTST 180530Z VRB02KT CAVOK 02/M02 Q1024 R88/CLRD70 NOSIG
TAF UTST 180500Z 1806/1906 03006G16KT 6000 SCT030 BKN100 
     TEMPO 1806/1815 09008G18KT 
     TEMPO 1815/1821 2000 BR FU 
     TEMPO 1821/1905 0600 FZFG VV002
       
UTNU 180530Z 08006KT 7000 NSC M01/M06 Q1023 R31/CLRD70 NOSIG
TAF UTNU 180501Z 1806/1906 07010G20KT 6000 BKN030 BKN100 
     TEMPO 1806/1812 VRB04KT 3000 -SN OVC010
       
UTTT 180530Z 10004KT 3000 BR NSC 01/M02 Q1025 R26R/19//60 NOSIG
TAF UTTT 180500Z 1806/1906 VRB02KT 5000 BR FEW020 SCT100 
     TEMPO 1812/1815 35008KT 2000 BR 
     TEMPO 1815/1903 0500 FZFG VV002